createdAt,value
2022-08-08T00:00:50.580Z,51.29
2022-08-08T00:02:31.107Z,51.50
2022-08-08T00:05:22.393Z,51.40
2022-08-08T00:08:59.176Z,50.92
2022-08-08T00:12:09.510Z,51.00
2022-08-08T00:14:58.725Z,50.15
2022-08-08T00:18:01.764Z,50.66
2022-08-08T00:20:55.148Z,50.50
2022-08-08T00:23:42.773Z,50.70
2022-08-08T00:26:29.096Z,50.34
2022-08-08T00:29:45.181Z,49.71
2022-08-08T00:32:38.771Z,50.38
2022-08-08T00:35:51.489Z,49.52
2022-08-08T00:38:44.358Z,49.72
2022-08-08T00:42:32.965Z,50.63
2022-08-08T00:45:37.644Z,50.43
2022-08-08T00:48:30.108Z,49.84
2022-08-08T00:51:54.765Z,50.15
2022-08-08T00:55:52.544Z,50.30
2022-08-08T00:58:36.655Z,50.35
2022-08-08T01:01:39.251Z,50.05
2022-08-08T01:05:41.739Z,50.83
2022-08-08T01:08:12.321Z,50.39
2022-08-08T01:10:59.938Z,51.56
2022-08-08T01:14:04.742Z,50.59
2022-08-08T01:17:09.562Z,50.94
2022-08-08T01:20:02.659Z,51.04
2022-08-08T01:23:06.277Z,51.05
2022-08-08T01:26:18.503Z,51.12
2022-08-08T01:29:17.817Z,51.26
2022-08-08T01:32:41.904Z,51.42
2022-08-08T01:35:29.826Z,51.47
2022-08-08T01:38:37.992Z,52.48
2022-08-08T01:41:34.366Z,51.85
2022-08-08T01:44:18.292Z,52.36
2022-08-08T01:48:14.473Z,51.54
2022-08-08T01:50:29.782Z,52.51
2022-08-08T01:54:33.113Z,52.96
2022-08-08T01:56:48.883Z,51.62
2022-08-08T02:00:01.788Z,52.45
2022-08-08T02:03:54.367Z,51.73
2022-08-08T02:06:43.638Z,51.62
2022-08-08T02:10:03.998Z,52.17
2022-08-08T02:13:03.333Z,51.15
2022-08-08T02:15:54.291Z,52.08
2022-08-08T02:18:59.523Z,52.11
2022-08-08T02:22:28.333Z,51.66
2022-08-08T02:25:20.516Z,51.84
2022-08-08T02:28:06.604Z,51.46
2022-08-08T02:30:50.134Z,51.44
2022-08-08T02:34:08.252Z,51.72
2022-08-08T02:37:53.554Z,51.96
2022-08-08T02:40:45.046Z,51.73
2022-08-08T02:44:37.276Z,52.21
2022-08-08T02:46:53.004Z,51.28
2022-08-08T02:50:15.340Z,51.41
2022-08-08T02:53:17.105Z,51.64
2022-08-08T02:56:51.737Z,52.06
2022-08-08T03:00:26.843Z,51.95
2022-08-08T03:03:46.070Z,51.38
2022-08-08T03:07:19.776Z,50.85
2022-08-08T03:10:44.591Z,50.55
2022-08-08T03:15:58.224Z,50.98
2022-08-08T03:16:50.986Z,51.16
2022-08-08T03:20:08.093Z,51.39
2022-08-08T03:23:04.497Z,51.90
2022-08-08T03:25:36.390Z,52.08
2022-08-08T03:28:30.265Z,52.60
2022-08-08T03:31:13.618Z,52.94
2022-08-08T03:33:56.795Z,53.00
2022-08-08T03:36:30.549Z,52.99
2022-08-08T03:39:14.540Z,52.91
2022-08-08T03:42:11.849Z,53.33
2022-08-08T03:44:38.750Z,52.99
2022-08-08T03:47:19.713Z,51.84
2022-08-08T03:50:00.793Z,51.99
2022-08-08T03:52:35.389Z,51.58
2022-08-08T03:55:20.109Z,51.29
2022-08-08T03:58:36.459Z,50.22
2022-08-08T04:01:24.441Z,49.41
2022-08-08T04:03:59.238Z,49.12
2022-08-08T04:06:31.091Z,48.90
2022-08-08T04:09:11.255Z,48.47
2022-08-08T04:11:48.360Z,48.94
2022-08-08T04:14:36.555Z,47.63
2022-08-08T04:17:22.568Z,47.29
2022-08-08T04:19:56.596Z,46.60
2022-08-08T04:22:29.707Z,46.37
2022-08-08T04:24:59.365Z,46.01
2022-08-08T04:28:01.770Z,45.69
2022-08-08T04:30:19.621Z,46.58
2022-08-08T04:32:52.003Z,45.82
2022-08-08T04:35:23.908Z,46.32
2022-08-08T04:37:54.651Z,45.81
2022-08-08T04:40:35.311Z,45.94
2022-08-08T04:43:05.571Z,46.17
2022-08-08T04:45:41.604Z,46.42
2022-08-08T04:48:10.964Z,46.20
2022-08-08T04:50:46.018Z,46.25
2022-08-08T04:54:27.444Z,46.20
2022-08-08T04:56:10.045Z,46.24
2022-08-08T04:58:38.350Z,45.82
2022-08-08T05:01:11.073Z,45.62
2022-08-08T05:04:10.408Z,46.89
2022-08-08T05:06:39.225Z,46.48
2022-08-08T05:09:09.533Z,46.01
2022-08-08T05:11:41.562Z,46.21
2022-08-08T05:14:12.760Z,46.95
2022-08-08T05:16:52.756Z,46.66
2022-08-08T05:20:12.686Z,46.69
2022-08-08T05:22:14.166Z,46.44
2022-08-08T05:24:48.068Z,46.46
2022-08-08T05:27:19.309Z,46.03
2022-08-08T05:29:50.286Z,46.50
2022-08-08T05:32:24.623Z,46.36
2022-08-08T05:35:04.649Z,46.19
2022-08-08T05:37:52.541Z,45.85
2022-08-08T05:40:28.095Z,45.63
2022-08-08T05:43:39.124Z,45.90
2022-08-08T05:46:07.591Z,45.33
2022-08-08T05:48:41.858Z,45.04
2022-08-08T05:51:15.841Z,45.00
2022-08-08T05:54:29.018Z,45.73
2022-08-08T05:56:47.634Z,45.47
2022-08-08T06:00:00.906Z,45.93
2022-08-08T06:02:43.681Z,45.72
2022-08-08T06:05:34.759Z,46.22
2022-08-08T06:08:09.684Z,45.92
2022-08-08T06:10:42.020Z,45.47
2022-08-08T06:13:12.689Z,44.88
2022-08-08T06:15:51.072Z,45.64
2022-08-08T06:18:40.217Z,45.71
2022-08-08T06:21:11.722Z,45.17
2022-08-08T06:24:03.325Z,44.17
2022-08-08T06:26:45.316Z,44.34
2022-08-08T06:30:02.719Z,44.82
2022-08-08T06:32:53.193Z,44.51
2022-08-08T06:36:06.772Z,44.19
2022-08-08T06:38:19.881Z,44.00
2022-08-08T06:40:54.429Z,43.92
2022-08-08T06:43:34.279Z,44.20
2022-08-08T06:46:17.907Z,44.73
2022-08-08T06:48:55.171Z,45.29
2022-08-08T06:51:25.243Z,45.57
2022-08-08T06:54:03.105Z,45.49
2022-08-08T06:56:37.108Z,44.70
2022-08-08T06:59:09.762Z,44.44
2022-08-08T07:02:24.369Z,44.08
2022-08-08T07:04:58.637Z,44.27
2022-08-08T07:07:59.845Z,43.38
2022-08-08T07:10:48.787Z,43.55
2022-08-08T07:13:19.117Z,43.99
2022-08-08T07:16:04.664Z,44.67
2022-08-08T07:19:10.122Z,44.32
2022-08-08T07:22:05.542Z,43.64
2022-08-08T07:24:54.313Z,44.21
2022-08-08T07:27:27.777Z,44.22
2022-08-08T07:30:12.104Z,43.86
2022-08-08T07:32:43.611Z,44.77
2022-08-08T07:35:15.731Z,44.97
2022-08-08T07:38:04.676Z,44.44
2022-08-08T07:41:04.798Z,45.50
2022-08-08T07:43:38.019Z,45.88
2022-08-08T07:46:23.111Z,45.29
2022-08-08T07:48:53.068Z,44.77
2022-08-08T07:51:23.042Z,45.00
2022-08-08T07:54:26.609Z,45.14
2022-08-08T07:57:27.254Z,46.19
2022-08-08T08:00:17.195Z,45.78
2022-08-08T08:03:20.866Z,46.57
2022-08-08T08:05:56.517Z,46.42
2022-08-08T08:08:39.357Z,45.34
2022-08-08T08:11:34.125Z,45.46
2022-08-08T08:14:18.078Z,45.20
2022-08-08T08:16:50.353Z,45.11
2022-08-08T08:19:21.111Z,46.24
2022-08-08T08:21:57.223Z,45.71
2022-08-08T08:24:55.453Z,46.08
2022-08-08T08:27:25.631Z,47.03
2022-08-08T08:29:59.465Z,47.18
2022-08-08T08:32:36.732Z,47.67
2022-08-08T08:35:21.386Z,47.51
2022-08-08T08:38:17.217Z,47.52
2022-08-08T08:40:52.025Z,47.23
2022-08-08T08:43:26.843Z,47.06
2022-08-08T08:46:05.508Z,47.04
2022-08-08T08:48:35.092Z,46.94
2022-08-08T08:51:05.410Z,46.25
2022-08-08T08:53:56.248Z,46.74
2022-08-08T08:56:29.414Z,47.07
2022-08-08T08:59:05.751Z,47.62
2022-08-08T09:01:45.373Z,47.93
2022-08-08T09:04:31.457Z,48.07
2022-08-08T09:07:22.851Z,48.06
2022-08-08T09:09:58.149Z,49.13
2022-08-08T09:12:38.296Z,49.77
2022-08-08T09:15:07.322Z,49.62
2022-08-08T09:17:55.298Z,49.79
2022-08-08T09:21:56.793Z,49.58
2022-08-08T09:23:17.595Z,49.39
2022-08-08T09:26:02.130Z,49.42
2022-08-08T09:28:39.579Z,49.58
2022-08-08T09:31:42.742Z,49.24
2022-08-08T09:34:34.102Z,49.25
2022-08-08T09:37:57.950Z,49.17
2022-08-08T09:40:16.108Z,49.11
2022-08-08T09:43:16.640Z,48.57
2022-08-08T09:46:10.974Z,49.23
2022-08-08T09:48:42.671Z,49.85
2022-08-08T09:51:15.064Z,48.49
2022-08-08T09:53:59.189Z,47.99
2022-08-08T09:56:40.067Z,49.24
2022-08-08T09:59:50.111Z,48.06
2022-08-08T10:02:12.947Z,46.54
2022-08-08T10:04:48.116Z,48.26
2022-08-08T10:07:17.470Z,47.94
2022-08-08T10:09:59.479Z,46.81
2022-08-08T10:12:53.140Z,46.14
2022-08-08T10:15:25.594Z,46.50
2022-08-08T10:18:06.545Z,46.09
2022-08-08T10:20:57.783Z,46.65
2022-08-08T10:23:58.719Z,47.60
2022-08-08T10:26:52.319Z,45.88
2022-08-08T10:29:44.122Z,45.48
2022-08-08T10:32:40.386Z,45.28
2022-08-08T10:36:09.538Z,45.63
2022-08-08T10:38:14.392Z,44.88
2022-08-08T10:40:50.415Z,44.93
2022-08-08T10:43:18.459Z,45.39
2022-08-08T10:45:57.269Z,46.02
2022-08-08T10:48:56.776Z,46.55
2022-08-08T10:51:31.086Z,47.00
2022-08-08T10:54:02.126Z,46.52
2022-08-08T10:56:35.486Z,46.74
2022-08-08T10:59:09.304Z,46.98
2022-08-08T11:01:39.475Z,46.57
2022-08-08T11:04:12.186Z,46.14
2022-08-08T11:06:41.666Z,46.75
2022-08-08T11:09:21.592Z,46.62
2022-08-08T11:12:04.946Z,46.56
2022-08-08T11:14:58.102Z,46.61
2022-08-08T11:17:58.212Z,46.68
2022-08-08T11:20:29.036Z,46.30
2022-08-08T11:22:59.756Z,46.83
2022-08-08T11:25:53.256Z,46.51
2022-08-08T11:28:30.903Z,46.07
2022-08-08T11:31:03.746Z,46.04
2022-08-08T11:33:53.210Z,44.96
2022-08-08T11:36:27.864Z,45.52
2022-08-08T11:38:58.058Z,44.98
2022-08-08T11:41:33.610Z,44.64
2022-08-08T11:44:02.636Z,44.41
2022-08-08T11:46:34.440Z,44.88
2022-08-08T11:49:09.278Z,45.10
2022-08-08T11:51:40.193Z,44.57
2022-08-08T11:54:31.923Z,44.59
2022-08-08T11:57:27.071Z,43.91
2022-08-08T12:00:05.433Z,43.40
2022-08-08T12:02:54.735Z,42.93
2022-08-08T12:05:34.934Z,41.93
2022-08-08T12:08:04.872Z,41.94
2022-08-08T12:10:33.838Z,41.39
2022-08-08T12:13:07.295Z,41.81
2022-08-08T12:15:48.316Z,41.95
2022-08-08T12:18:21.197Z,41.27
2022-08-08T12:20:56.662Z,41.02
2022-08-08T12:23:43.544Z,40.93
2022-08-08T12:26:27.217Z,41.22
2022-08-08T12:28:58.632Z,41.34
2022-08-08T12:31:39.121Z,40.92
2022-08-08T12:35:01.358Z,41.06
2022-08-08T12:37:41.065Z,41.38
2022-08-08T12:40:22.722Z,41.77
2022-08-08T12:42:53.050Z,41.32
2022-08-08T12:45:57.829Z,41.66
2022-08-08T12:48:36.530Z,40.80
2022-08-08T12:51:11.275Z,40.13
2022-08-08T12:53:59.765Z,40.03
2022-08-08T12:56:36.151Z,40.55
2022-08-08T12:59:14.805Z,39.63
2022-08-08T13:01:49.372Z,39.43
2022-08-08T13:04:24.630Z,38.97
2022-08-08T13:07:04.475Z,37.75
2022-08-08T13:09:43.012Z,35.37
2022-08-08T13:12:44.469Z,36.24
2022-08-08T13:15:20.292Z,35.63
2022-08-08T13:18:07.555Z,33.17
2022-08-08T13:20:45.913Z,32.81
2022-08-08T13:23:41.296Z,31.67
2022-08-08T13:26:14.940Z,30.81
2022-08-08T13:28:45.753Z,30.33
2022-08-08T13:31:16.311Z,30.06
2022-08-08T13:33:50.842Z,30.70
2022-08-08T13:36:27.694Z,30.32
2022-08-08T13:39:00.284Z,30.21
2022-08-08T13:41:39.614Z,31.14
2022-08-08T13:44:19.459Z,29.90
2022-08-08T13:46:58.485Z,31.08
2022-08-08T13:50:37.386Z,30.75
2022-08-08T13:52:23.014Z,31.46
2022-08-08T13:55:06.746Z,32.62
2022-08-08T13:57:46.389Z,32.40
2022-08-08T14:00:24.500Z,32.74
2022-08-08T14:03:20.103Z,31.84
2022-08-08T14:05:57.731Z,31.53
2022-08-08T14:08:30.415Z,29.73
2022-08-08T14:11:02.515Z,30.56
2022-08-08T14:13:33.644Z,29.34
2022-08-08T14:16:16.253Z,27.63
2022-08-08T14:19:00.623Z,27.21
2022-08-08T14:21:48.962Z,27.84
2022-08-08T14:24:34.319Z,27.66
2022-08-08T14:27:07.738Z,28.22
2022-08-08T14:29:39.129Z,28.33
2022-08-08T14:32:11.595Z,28.54
2022-08-08T14:34:42.652Z,27.95
2022-08-08T14:37:12.934Z,26.92
2022-08-08T14:40:05.763Z,28.16
2022-08-08T14:42:54.649Z,28.10
2022-08-08T14:45:46.978Z,28.11
2022-08-08T14:48:34.234Z,28.42
2022-08-08T14:51:07.401Z,29.29
2022-08-08T14:53:55.090Z,28.02
2022-08-08T14:56:25.977Z,28.52
2022-08-08T14:58:55.062Z,28.10
2022-08-08T15:01:37.298Z,27.46
2022-08-08T15:04:11.172Z,27.30
2022-08-08T15:06:39.250Z,26.80
2022-08-08T15:09:11.259Z,26.88
2022-08-08T15:11:43.145Z,27.65
2022-08-08T15:14:15.274Z,26.98
2022-08-08T15:16:44.473Z,26.55
2022-08-08T15:19:15.053Z,27.72
2022-08-08T15:21:44.739Z,27.74
2022-08-08T15:24:15.944Z,28.29
2022-08-08T15:26:46.640Z,27.90
2022-08-08T15:29:22.522Z,28.06
2022-08-08T15:32:02.916Z,27.72
2022-08-08T15:34:41.301Z,27.70
2022-08-08T15:37:09.683Z,27.55
2022-08-08T15:39:39.698Z,26.52
2022-08-08T15:42:18.206Z,26.74
2022-08-08T15:44:59.015Z,27.08
2022-08-08T15:47:26.566Z,27.94
2022-08-08T15:49:54.472Z,28.23
2022-08-08T15:52:28.727Z,28.26
2022-08-08T15:54:56.509Z,27.89
2022-08-08T15:57:24.300Z,27.82
2022-08-08T16:00:06.437Z,27.41
2022-08-08T16:02:44.651Z,28.05
2022-08-08T16:05:20.541Z,29.23
2022-08-08T16:07:52.892Z,29.17
2022-08-08T16:13:10.232Z,29.82
2022-08-08T16:13:33.530Z,30.34
2022-08-08T16:16:13.338Z,31.03
2022-08-08T16:18:56.502Z,32.55
2022-08-08T16:21:30.874Z,32.36
2022-08-08T16:24:07.574Z,33.64
2022-08-08T16:26:42.252Z,34.66
2022-08-08T16:29:15.630Z,35.22
2022-08-08T16:31:48.585Z,35.68
2022-08-08T16:34:21.929Z,36.09
2022-08-08T16:36:52.897Z,36.62
2022-08-08T16:39:59.497Z,36.71
2022-08-08T16:42:18.636Z,37.68
2022-08-08T16:44:54.603Z,37.47
2022-08-08T16:47:40.514Z,38.23
2022-08-08T16:50:15.112Z,38.78
2022-08-08T16:55:03.427Z,39.21
2022-08-08T16:55:54.208Z,40.33
2022-08-08T16:58:26.644Z,40.26
2022-08-08T17:00:58.830Z,41.27
2022-08-08T17:04:00.657Z,41.89
2022-08-08T17:06:36.796Z,42.15
2022-08-08T17:09:04.211Z,42.19
2022-08-08T17:11:48.518Z,42.53
2022-08-08T17:14:27.278Z,41.93
2022-08-08T17:17:04.953Z,42.37
2022-08-08T17:19:40.752Z,42.39
2022-08-08T17:22:09.707Z,43.22
2022-08-08T17:24:37.653Z,43.56
2022-08-08T17:27:05.689Z,43.78
2022-08-08T17:29:36.504Z,43.88
2022-08-08T17:32:11.109Z,43.94
2022-08-08T17:34:59.779Z,44.09
2022-08-08T17:37:27.557Z,44.49
2022-08-08T17:40:10.838Z,44.55
2022-08-08T17:42:47.251Z,44.74
2022-08-08T17:45:22.443Z,44.56
2022-08-08T17:47:54.092Z,44.81
2022-08-08T17:50:24.757Z,44.49
2022-08-08T17:52:53.855Z,44.08
2022-08-08T17:56:03.460Z,44.22
2022-08-08T17:58:12.390Z,44.02
2022-08-08T18:00:41.555Z,43.25
2022-08-08T18:03:13.696Z,42.32
2022-08-08T18:05:48.063Z,43.09
2022-08-08T18:08:24.704Z,44.14
2022-08-08T18:11:15.291Z,44.64
2022-08-08T18:13:47.772Z,45.31
2022-08-08T18:16:20.675Z,46.19
2022-08-08T18:18:57.338Z,45.82
2022-08-08T18:21:59.390Z,45.81
2022-08-08T18:24:30.186Z,46.25
2022-08-08T18:27:00.803Z,46.07
2022-08-08T18:29:37.165Z,46.03
2022-08-08T18:32:08.649Z,45.90
2022-08-08T18:34:40.283Z,45.48
2022-08-08T18:37:17.843Z,46.21
2022-08-08T18:39:58.477Z,45.52
2022-08-08T18:42:26.327Z,45.42
2022-08-08T18:44:57.427Z,45.49
2022-08-08T18:47:27.051Z,44.72
2022-08-08T18:49:59.971Z,45.67
2022-08-08T18:52:30.454Z,45.98
2022-08-08T18:55:09.846Z,46.07
2022-08-08T18:57:44.976Z,46.00
2022-08-08T19:00:22.701Z,45.30
2022-08-08T19:02:55.619Z,44.65
2022-08-08T19:05:44.103Z,43.71
2022-08-08T19:08:24.891Z,43.82
2022-08-08T19:11:01.600Z,43.53
2022-08-08T19:13:53.447Z,43.45
2022-08-08T19:16:20.666Z,44.08
2022-08-08T19:19:02.265Z,42.67
2022-08-08T19:21:33.449Z,42.65
2022-08-08T19:24:05.296Z,42.42
2022-08-08T19:26:37.727Z,43.74
2022-08-08T19:29:06.615Z,42.66
2022-08-08T19:31:34.980Z,43.44
2022-08-08T19:34:36.787Z,42.76
2022-08-08T19:36:58.981Z,43.03
2022-08-08T19:39:34.996Z,43.33
2022-08-08T19:42:06.761Z,42.71
2022-08-08T19:44:43.436Z,42.48
2022-08-08T19:47:15.752Z,42.92
2022-08-08T19:50:00.310Z,42.61
2022-08-08T19:52:34.417Z,41.96
2022-08-08T19:55:12.745Z,42.41
2022-08-08T19:57:45.667Z,42.37
2022-08-08T20:00:28.995Z,42.59
2022-08-08T20:03:14.708Z,41.65
2022-08-08T20:06:14.518Z,41.71
2022-08-08T20:08:40.286Z,42.26
2022-08-08T20:11:14.791Z,42.59
2022-08-08T20:14:12.683Z,42.09
2022-08-08T20:16:40.437Z,42.11
2022-08-08T20:19:09.769Z,42.43
2022-08-08T20:21:38.548Z,42.78
2022-08-08T20:24:07.739Z,42.12
2022-08-08T20:26:38.489Z,43.09
2022-08-08T20:29:11.082Z,42.56
2022-08-08T20:31:47.343Z,42.48
2022-08-08T20:34:31.909Z,42.86
2022-08-08T20:37:03.301Z,43.08
2022-08-08T20:39:39.468Z,43.60
2022-08-08T20:42:28.511Z,42.99
2022-08-08T20:44:58.769Z,43.50
2022-08-08T20:47:26.837Z,43.76
2022-08-08T20:50:05.571Z,43.63
2022-08-08T20:52:33.223Z,43.45
2022-08-08T20:55:01.661Z,43.50
2022-08-08T20:57:43.930Z,43.74
2022-08-08T21:00:15.869Z,44.52
2022-08-08T21:02:48.478Z,44.23
2022-08-08T21:05:16.570Z,44.64
2022-08-08T21:08:33.305Z,44.42
2022-08-08T21:10:33.592Z,44.28
2022-08-08T21:13:01.145Z,44.12
2022-08-08T21:16:06.088Z,44.21
2022-08-08T21:18:17.930Z,44.65
2022-08-08T21:20:50.642Z,44.54
2022-08-08T21:23:19.128Z,44.99
2022-08-08T21:25:54.755Z,44.79
2022-08-08T21:28:35.975Z,44.96
2022-08-08T21:31:22.982Z,44.00
2022-08-08T21:33:55.024Z,42.80
2022-08-08T21:36:28.882Z,42.79
2022-08-08T21:38:58.365Z,42.32
2022-08-08T21:41:38.078Z,42.46
2022-08-08T21:44:12.091Z,42.46
2022-08-08T21:48:07.085Z,42.87
2022-08-08T21:49:30.825Z,42.86
2022-08-08T21:54:31.175Z,42.42
2022-08-08T21:55:02.497Z,42.16
2022-08-08T21:57:42.492Z,42.55
2022-08-08T22:00:14.817Z,42.65
2022-08-08T22:02:45.098Z,45.28
2022-08-08T22:05:14.764Z,46.14
2022-08-08T22:07:47.384Z,46.25
2022-08-08T22:10:32.253Z,46.82
2022-08-08T22:13:17.658Z,47.63
2022-08-08T22:15:59.088Z,47.17
2022-08-08T22:18:34.341Z,47.13
2022-08-08T22:21:14.371Z,47.39
2022-08-08T22:23:52.192Z,47.62
2022-08-08T22:26:28.872Z,47.42
2022-08-08T22:29:13.254Z,47.10
2022-08-08T22:32:02.407Z,46.64
2022-08-08T22:34:39.235Z,46.55
2022-08-08T22:37:15.074Z,46.62
2022-08-08T22:40:01.381Z,47.06
2022-08-08T22:42:31.861Z,46.46
2022-08-08T22:45:12.419Z,46.96
2022-08-08T22:47:47.045Z,46.83
2022-08-08T22:50:25.767Z,46.90
2022-08-08T22:54:33.781Z,46.98
2022-08-08T22:55:58.034Z,46.98
2022-08-08T22:58:33.298Z,47.14
2022-08-08T23:02:03.002Z,46.84
2022-08-08T23:03:54.991Z,46.89
2022-08-08T23:06:25.710Z,47.62
2022-08-08T23:09:00.027Z,48.14
2022-08-08T23:11:30.791Z,49.72
2022-08-08T23:14:20.527Z,51.03
2022-08-08T23:16:54.840Z,52.23
2022-08-08T23:19:31.073Z,52.54
2022-08-08T23:22:06.532Z,53.26
2022-08-08T23:24:41.356Z,54.02
2022-08-08T23:27:37.931Z,53.91
2022-08-08T23:30:03.045Z,53.75
2022-08-08T23:32:32.036Z,53.78
2022-08-08T23:35:00.931Z,51.88
2022-08-08T23:37:54.276Z,50.73
2022-08-08T23:40:22.085Z,50.98
2022-08-08T23:42:51.518Z,50.78
2022-08-08T23:49:02.240Z,50.83
2022-08-08T23:49:05.982Z,50.81
2022-08-08T23:50:57.456Z,51.06
2022-08-08T23:54:04.717Z,51.29
2022-08-08T23:56:13.796Z,52.04
2022-08-08T23:58:52.030Z,53.98
